Time;durP1;ratioP1;P1;durP2;ratioP2;P2;SDS_P1;SDS_P2;PMS_P1;PMS_P2;Temp;Humidity;BMP_temperature;BMP_pressure;BME280_temperature;BME280_humidity;BME280_pressure;Samples;Min_cycle;Max_cycle;Signal;HPM_P1;HPM_P2
2021/08/25 00:00:51;;;;;;;24.70;12.68;;;;;;;20.05;74.10;100111.71;1810834;79;21366;-77
2021/08/25 00:03:57;;;;;;;20.62;11.63;;;;;;;20.04;74.22;100110.88;1811164;79;22505;-76
2021/08/25 00:07:06;;;;;;;20.85;12.65;;;;;;;20.03;74.27;100111.09;1809547;79;21255;-77
2021/08/25 00:10:11;;;;;;;23.70;12.45;;;;;;;20.01;74.40;100107.19;1811135;79;21283;-77
2021/08/25 00:13:18;;;;;;;23.90;13.13;;;;;;;20.00;75.46;100110.21;1810293;79;21319;-77
2021/08/25 00:16:23;;;;;;;21.52;12.43;;;;;;;19.98;75.86;100104.87;1811182;79;21177;-77
2021/08/25 00:19:29;;;;;;;25.30;14.13;;;;;;;19.99;76.18;100103.78;1787307;79;21807;-77
2021/08/25 00:22:34;;;;;;;28.87;14.20;;;;;;;20.02;76.48;100101.92;1811201;79;21291;-76
2021/08/25 00:25:40;;;;;;;22.73;11.95;;;;;;;20.06;76.68;100098.96;1811505;79;21176;-77
2021/08/25 00:28:46;;;;;;;18.65;11.95;;;;;;;20.11;76.77;100103.78;1810132;79;21366;-76
2021/08/25 00:31:51;;;;;;;27.80;14.35;;;;;;;20.11;76.68;100104.63;1811430;79;21335;-76
2021/08/25 00:34:58;;;;;;;33.28;14.55;;;;;;;20.09;76.33;100105.95;1811290;79;21157;-76
2021/08/25 00:38:03;;;;;;;28.32;14.38;;;;;;;20.03;76.21;100103.60;1810206;79;21287;-77
2021/08/25 00:41:09;;;;;;;32.38;14.73;;;;;;;19.97;76.47;100099.03;1811142;79;21287;-76
2021/08/25 00:44:15;;;;;;;26.52;14.00;;;;;;;19.91;76.93;100095.85;1801404;79;21248;-76
2021/08/25 00:47:23;;;;;;;23.67;13.62;;;;;;;19.87;77.16;100096.03;1801332;79;21209;-77
2021/08/25 00:50:28;;;;;;;23.83;14.35;;;;;;;19.82;77.27;100092.59;1802712;79;21288;-77
2021/08/25 00:53:33;;;;;;;29.07;14.87;;;;;;;19.75;77.38;100091.02;1802826;79;21291;-77
2021/08/25 00:56:40;;;;;;;28.83;16.25;;;;;;;19.69;77.72;100083.12;1802867;79;21338;-76
2021/08/25 00:59:45;;;;;;;35.17;16.65;;;;;;;19.64;77.89;100082.46;1801254;79;21212;-76
2021/08/25 01:03:01;;;;;;;28.87;16.30;;;;;;;19.63;78.43;100083.55;1802953;79;21296;-76
2021/08/25 01:06:07;;;;;;;24.20;15.75;;;;;;;19.62;78.11;100088.80;1802799;79;21871;-76
2021/08/25 01:09:13;;;;;;;30.15;15.40;;;;;;;19.58;78.08;100086.72;1802828;79;21276;-76
2021/08/25 01:12:21;;;;;;;29.12;15.72;;;;;;;19.53;78.25;100083.28;1801476;79;21169;-76
2021/08/25 01:15:26;;;;;;;29.67;15.15;;;;;;;19.49;78.44;100082.07;1801400;79;21279;-77
2021/08/25 01:18:32;;;;;;;31.15;17.60;;;;;;;19.46;78.65;100079.77;1801878;79;21217;-76
2021/08/25 01:21:37;;;;;;;29.57;17.85;;;;;;;19.44;79.07;100083.88;1802935;79;21339;-77
2021/08/25 01:24:42;;;;;;;33.35;18.25;;;;;;;19.44;80.09;100078.34;1802863;79;21342;-77
2021/08/25 01:27:49;;;;;;;36.73;17.90;;;;;;;19.49;80.71;100084.84;1802525;79;21327;-77
2021/08/25 01:30:55;;;;;;;39.20;19.23;;;;;;;19.52;81.48;100082.95;1803196;79;21795;-77
2021/08/25 01:34:10;;;;;;;37.23;20.05;;;;;;;19.53;82.20;100087.98;1802855;79;21291;-77
2021/08/25 01:37:16;;;;;;;31.82;18.87;;;;;;;19.53;82.75;100090.22;1802882;79;21185;-77
2021/08/25 01:40:22;;;;;;;41.90;22.70;;;;;;;19.55;83.71;100083.88;1802985;79;21914;-77
2021/08/25 01:43:29;;;;;;;44.75;22.20;;;;;;;19.56;84.94;100084.16;1802067;79;21251;-77
2021/08/25 01:46:39;;;;;;;36.48;20.08;;;;;;;19.61;85.26;100086.25;1802711;79;21185;-77
2021/08/25 01:49:46;;;;;;;36.70;20.75;;;;;;;19.70;85.77;100079.80;1802880;79;21755;-76
2021/08/25 01:52:51;;;;;;;39.83;21.12;;;;;;;19.71;86.39;100075.94;1802960;79;21708;-77
2021/08/25 01:55:57;;;;;;;37.13;20.62;;;;;;;19.73;86.74;100075.17;1802983;79;21288;-77
2021/08/25 01:59:03;;;;;;;28.32;17.32;;;;;;;19.75;86.98;100071.59;1801658;79;21264;-77
2021/08/25 02:02:08;;;;;;;37.05;18.48;;;;;;;19.77;86.90;100073.60;1803002;79;21803;-77
2021/08/25 02:05:14;;;;;;;34.15;18.92;;;;;;;19.79;86.17;100068.64;1802657;79;21334;-76
2021/08/25 02:08:20;;;;;;;31.25;18.75;;;;;;;19.85;85.00;100073.20;1801192;79;21205;-77
2021/08/25 02:11:26;;;;;;;36.38;17.90;;;;;;;19.88;84.38;100067.19;1801296;79;21177;-77
2021/08/25 02:14:33;;;;;;;34.10;19.10;;;;;;;19.91;83.88;100062.55;1802266;79;21327;-76
2021/08/25 02:17:40;;;;;;;37.17;20.60;;;;;;;19.91;83.51;100071.71;1802901;79;21291;-77
2021/08/25 02:20:46;;;;;;;40.58;20.45;;;;;;;19.92;84.04;100060.06;1802762;79;21182;-77
2021/08/25 02:23:51;;;;;;;39.10;20.90;;;;;;;19.91;84.47;100060.61;1801335;79;21177;-77
2021/08/25 02:26:57;;;;;;;41.05;23.57;;;;;;;19.91;84.76;100064.77;1802878;79;21193;-77
2021/08/25 02:30:03;;;;;;;43.17;21.02;;;;;;;19.89;85.09;100060.53;1801197;79;21252;-76
2021/08/25 02:33:09;;;;;;;45.88;21.75;;;;;;;19.90;85.47;100070.55;1802817;79;21625;-77
2021/08/25 02:36:15;;;;;;;39.40;20.97;;;;;;;19.86;85.66;100070.21;1801294;79;21746;-77
2021/08/25 02:39:21;;;;;;;46.40;22.32;;;;;;;19.79;85.93;100072.26;1802733;79;21232;-77
2021/08/25 02:42:26;;;;;;;38.63;20.77;;;;;;;19.73;86.23;100073.23;1802742;79;21326;-77
2021/08/25 02:45:31;;;;;;;41.10;20.70;;;;;;;19.69;86.31;100067.02;1780647;79;21315;-77
2021/08/25 02:48:37;;;;;;;37.40;20.92;;;;;;;19.66;86.44;100067.79;1778164;80;21193;-77
2021/08/25 02:51:42;;;;;;;36.33;21.02;;;;;;;19.68;86.10;100070.89;1777912;80;21820;-76
2021/08/25 02:54:48;;;;;;;44.88;22.05;;;;;;;19.68;85.98;100074.51;1777905;80;21292;-76
2021/08/25 02:57:53;;;;;;;40.33;20.57;;;;;;;19.69;86.05;100071.19;1779554;80;21644;-77
2021/08/25 03:00:58;;;;;;;36.60;21.15;;;;;;;19.68;85.78;100070.89;1778347;80;21339;-76
2021/08/25 03:04:05;;;;;;;40.33;20.00;;;;;;;19.68;85.33;100073.12;1777946;80;21339;-77
2021/08/25 03:07:11;;;;;;;46.08;20.75;;;;;;;19.68;85.18;100072.28;1777901;80;21169;-77
2021/08/25 03:10:17;;;;;;;38.40;21.35;;;;;;;19.66;85.31;100069.17;1777944;80;21367;-77
2021/08/25 03:13:23;;;;;;;38.50;21.90;;;;;;;19.65;85.25;100071.66;1779271;80;21292;-76
2021/08/25 03:16:29;;;;;;;49.70;20.85;;;;;;;19.66;85.19;100078.89;1778482;80;21358;-76
2021/08/25 03:19:35;;;;;;;36.77;20.82;;;;;;;19.69;85.02;100085.90;1779020;80;21291;-77
2021/08/25 03:22:40;;;;;;;37.53;19.98;;;;;;;19.72;84.74;100085.97;1779180;80;21284;-77
2021/08/25 03:25:47;;;;;;;41.35;21.50;;;;;;;19.74;84.81;100087.95;1779349;80;22516;-76
2021/08/25 03:28:51;;;;;;;42.15;20.45;;;;;;;19.71;85.21;100095.36;1779310;80;21224;-77
2021/08/25 03:31:57;;;;;;;50.58;20.20;;;;;;;19.65;85.54;100092.47;1778390;80;21656;-76
2021/08/25 03:35:03;;;;;;;43.87;22.07;;;;;;;19.60;85.59;100090.96;1779483;80;21299;-77
2021/08/25 03:38:10;;;;;;;36.38;20.92;;;;;;;19.60;85.41;100093.73;1779235;80;21303;-76
2021/08/25 03:41:16;;;;;;;45.60;21.12;;;;;;;19.63;85.02;100093.27;1779364;80;21577;-76
2021/08/25 03:44:22;;;;;;;39.67;21.35;;;;;;;19.66;84.72;100094.69;1779486;80;21490;-77
2021/08/25 03:47:29;;;;;;;48.35;22.95;;;;;;;19.71;84.42;100097.59;1746379;82;21926;-77
2021/08/25 03:50:35;;;;;;;41.75;20.77;;;;;;;19.75;84.09;100098.80;1746762;82;21881;-76
2021/08/25 03:53:41;;;;;;;43.92;20.88;;;;;;;19.81;83.73;100090.07;1747638;82;21931;-76
2021/08/25 03:56:48;;;;;;;41.55;21.75;;;;;;;19.88;83.41;100089.39;1747729;82;21209;-77
2021/08/25 03:59:53;;;;;;;44.20;21.15;;;;;;;19.94;83.16;100095.34;1747306;82;21814;-77
2021/08/25 04:03:05;;;;;;;51.15;22.65;;;;;;;20.00;83.00;100095.78;1746461;82;21367;-77
2021/08/25 04:06:11;;;;;;;37.78;20.32;;;;;;;20.05;82.82;100093.12;1747768;82;21299;-76
2021/08/25 04:09:16;;;;;;;43.35;21.90;;;;;;;20.11;82.55;100094.06;1747725;82;21331;-77
2021/08/25 04:12:21;;;;;;;47.08;22.93;;;;;;;20.15;82.25;100093.34;1747760;82;21304;-77
2021/08/25 04:15:27;;;;;;;42.58;21.97;;;;;;;20.25;81.97;100089.09;1747752;82;21289;-77
2021/08/25 04:18:33;;;;;;;44.45;21.62;;;;;;;20.33;81.83;100092.33;1746606;81;21197;-76
2021/08/25 04:21:39;;;;;;;41.77;21.45;;;;;;;20.44;81.55;100094.77;1746554;82;21874;-77
2021/08/25 04:24:44;;;;;;;40.15;21.05;;;;;;;20.54;80.89;100093.62;1747748;82;21792;-77
2021/08/25 04:27:50;;;;;;;44.08;21.00;;;;;;;20.61;80.07;100091.55;1747724;82;21307;-77
2021/08/25 04:30:56;;;;;;;38.28;19.75;;;;;;;20.68;79.64;100091.39;1747184;82;21217;-76
2021/08/25 04:34:01;;;;;;;40.98;18.17;;;;;;;20.74;79.02;100088.16;1747691;82;21193;-76
2021/08/25 04:37:06;;;;;;;38.63;20.37;;;;;;;20.78;77.92;100088.80;1746302;82;21296;-77
2021/08/25 04:40:14;;;;;;;34.83;19.65;;;;;;;20.83;77.17;100089.45;1746543;82;21251;-76
2021/08/25 04:43:19;;;;;;;45.10;19.75;;;;;;;20.89;76.33;100087.08;1746596;82;21295;-76
2021/08/25 04:46:24;;;;;;;49.10;19.32;;;;;;;20.95;75.77;100088.86;1745939;82;21367;-77
2021/08/25 04:49:30;;;;;;;38.15;18.30;;;;;;;21.04;75.42;100082.34;1747758;82;21356;-76
2021/08/25 04:52:35;;;;;;;38.10;18.75;;;;;;;21.12;74.97;100090.25;1743232;80;21574;-77
2021/08/25 04:55:44;;;;;;;40.90;19.45;;;;;;;21.17;74.47;100082.87;1745706;82;21299;-77
2021/08/25 04:58:52;;;;;;;39.67;18.15;;;;;;;21.27;73.93;100086.38;1754397;80;21299;-77
2021/08/25 05:01:57;;;;;;;37.67;19.02;;;;;;;21.34;73.45;100077.87;1714838;82;21228;-77
2021/08/25 05:05:02;;;;;;;35.83;17.92;;;;;;;21.40;72.72;100078.25;1715671;83;22195;-77
2021/08/25 05:08:07;;;;;;;37.42;17.85;;;;;;;21.44;71.29;100075.26;1767440;80;21193;-76
2021/08/25 05:11:13;;;;;;;44.60;18.02;;;;;;;21.52;71.03;100075.39;1775179;80;21843;-76
2021/08/25 05:14:21;;;;;;;37.88;17.02;;;;;;;21.59;70.70;100077.44;1775267;80;21305;-77
2021/08/25 05:17:28;;;;;;;37.70;17.37;;;;;;;21.71;70.13;100075.96;1746533;80;21195;-76
2021/08/25 05:20:34;;;;;;;27.52;14.80;;;;;;;21.85;69.56;100074.50;1743875;80;21275;-77
2021/08/25 05:23:40;;;;;;;22.70;13.30;;;;;;;22.00;69.32;100071.92;1759574;80;21282;-77
2021/08/25 05:26:45;;;;;;;25.60;13.08;;;;;;;22.19;68.15;100072.49;1768767;80;21189;-77
2021/08/25 05:29:51;;;;;;;26.10;13.50;;;;;;;22.37;67.67;100078.30;1764157;80;21902;-77
2021/08/25 05:32:59;;;;;;;21.48;11.90;;;;;;;22.53;67.25;100077.92;1755285;80;21344;-76
2021/08/25 05:36:07;;;;;;;24.80;11.90;;;;;;;22.67;66.63;100075.86;1756733;80;21794;-77
2021/08/25 05:39:11;;;;;;;22.25;11.45;;;;;;;22.80;66.36;100078.80;1738329;82;21313;-77
2021/08/25 05:42:17;;;;;;;20.43;12.05;;;;;;;22.93;65.87;100074.78;1726555;82;21213;-77
2021/08/25 05:45:22;;;;;;;27.58;13.35;;;;;;;23.05;65.95;100071.81;1740867;81;21806;-77
2021/08/25 05:48:26;;;;;;;25.57;13.28;;;;;;;23.17;65.44;100071.11;1746873;80;21323;-78
2021/08/25 05:51:32;;;;;;;24.67;12.45;;;;;;;23.34;65.38;100072.38;1747392;81;21389;-78
2021/08/25 05:54:38;;;;;;;22.22;12.00;;;;;;;23.60;65.43;100063.08;1787973;79;21188;-78
2021/08/25 05:57:46;;;;;;;23.62;11.88;;;;;;;23.88;64.84;100051.28;1788079;79;21185;-78
2021/08/25 06:00:52;;;;;;;20.43;11.97;;;;;;;24.04;64.13;100067.56;1780657;79;21318;-77
2021/08/25 06:03:59;;;;;;;18.62;9.60;;;;;;;24.09;63.70;100060.08;1791282;79;22423;-78
2021/08/25 06:07:03;;;;;;;21.68;9.28;;;;;;;24.27;64.76;100057.90;1786105;79;21842;-77
2021/08/25 06:10:10;;;;;;;19.50;9.33;;;;;;;24.51;65.03;100055.50;1788113;79;21525;-78
2021/08/25 06:13:15;;;;;;;18.75;9.55;;;;;;;24.78;64.80;100050.55;1784947;79;21168;-78
2021/08/25 06:16:22;;;;;;;18.25;8.40;;;;;;;25.00;63.98;100048.92;1789734;79;21208;-78
2021/08/25 06:19:29;;;;;;;14.65;8.00;;;;;;;25.19;63.20;100050.08;1778967;79;21989;-79
2021/08/25 06:22:35;;;;;;;23.73;9.20;;;;;;;25.36;63.47;100052.61;1775404;79;21296;-78
2021/08/25 06:25:45;;;;;;;20.40;8.95;;;;;;;25.44;62.81;100044.19;1785903;79;21624;-78
2021/08/25 06:28:57;;;;;;;17.00;8.40;;;;;;;25.57;63.19;100047.83;1780749;79;21288;-79
2021/08/25 06:32:03;;;;;;;17.32;7.62;;;;;;;25.72;63.03;100047.80;1784702;79;21717;-78
2021/08/25 06:35:08;;;;;;;12.10;7.10;;;;;;;25.86;62.53;100043.04;1782973;79;21319;-78
2021/08/25 06:38:14;;;;;;;15.13;7.28;;;;;;;26.01;62.13;100044.39;1784979;79;21331;-79
2021/08/25 06:41:19;;;;;;;15.68;7.70;;;;;;;26.11;61.77;100051.92;1779619;79;21208;-79
2021/08/25 06:44:24;;;;;;;11.53;6.37;;;;;;;26.14;61.75;100048.56;1786708;79;21299;-78
2021/08/25 06:47:29;;;;;;;16.00;6.22;;;;;;;26.22;61.87;100056.39;1787537;79;21279;-78
2021/08/25 06:50:34;;;;;;;9.85;5.90;;;;;;;26.33;61.98;100052.97;1784619;79;21283;-78
2021/08/25 06:53:41;;;;;;;20.92;7.08;;;;;;;26.44;61.70;100059.70;1787077;79;21790;-78
2021/08/25 06:56:48;;;;;;;13.70;6.90;;;;;;;26.52;60.90;100059.64;1778818;79;21292;-78
2021/08/25 06:59:53;;;;;;;22.35;7.58;;;;;;;26.60;60.65;100063.25;1780672;79;21308;-78
2021/08/25 07:03:00;;;;;;;16.10;7.53;;;;;;;26.68;60.53;100062.66;1782059;79;21389;-79
2021/08/25 07:06:06;;;;;;;17.35;7.28;;;;;;;26.78;60.24;100061.76;1783286;79;21609;-77
2021/08/25 07:09:12;;;;;;;19.75;8.55;;;;;;;26.83;60.13;100058.08;1778839;79;21322;-77
2021/08/25 07:12:19;;;;;;;14.93;7.65;;;;;;;26.90;60.41;100054.37;1759606;79;21342;-77
2021/08/25 07:15:24;;;;;;;15.63;6.55;;;;;;;27.03;59.97;100059.34;1779797;79;21236;-77
2021/08/25 07:18:30;;;;;;;12.60;6.30;;;;;;;27.09;58.91;100058.20;1777297;79;21177;-77
2021/08/25 07:21:36;;;;;;;12.13;5.60;;;;;;;27.14;58.44;100062.36;1783829;79;21815;-78
2021/08/25 07:24:46;;;;;;;12.53;6.30;;;;;;;27.21;57.41;100062.89;1777137;79;21295;-82
2021/08/25 07:27:51;;;;;;;10.80;4.58;;;;;;;27.32;57.99;100058.02;1784640;79;21306;-77
2021/08/25 07:31:03;;;;;;;15.23;4.80;;;;;;;27.48;56.46;100055.36;1783468;79;21339;-77
2021/08/25 07:34:13;;;;;;;9.30;4.62;;;;;;;27.65;55.13;100057.72;1788113;79;21288;-78
2021/08/25 07:37:23;;;;;;;13.48;3.90;;;;;;;27.84;54.12;100055.60;1774749;79;21275;-76
2021/08/25 07:40:28;;;;;;;10.72;4.03;;;;;;;27.96;53.76;100057.45;1779839;79;21359;-78
2021/08/25 07:43:37;;;;;;;7.90;3.42;;;;;;;28.06;51.97;100057.90;1788997;79;21822;-78
2021/08/25 07:46:42;;;;;;;7.50;3.98;;;;;;;28.09;51.14;100054.47;1786584;79;21663;-79
2021/08/25 07:49:55;;;;;;;7.00;3.67;;;;;;;28.11;50.79;100059.25;1788717;79;21324;-81
2021/08/25 07:53:05;;;;;;;5.60;3.40;;;;;;;28.09;49.97;100052.53;1784685;79;21382;-78
2021/08/25 07:56:18;;;;;;;6.10;3.15;;;;;;;28.13;50.67;100052.17;1785975;79;21177;-78
2021/08/25 07:59:38;;;;;;;11.35;3.80;;;;;;;28.21;50.37;100052.09;1778158;79;21839;-78
2021/08/25 08:02:42;;;;;;;6.28;3.05;;;;;;;28.33;49.36;100054.49;1786585;79;21273;-78
2021/08/25 08:05:54;;;;;;;11.15;3.75;;;;;;;28.42;48.39;100047.06;1780058;79;21783;-78
2021/08/25 08:09:09;;;;;;;11.03;3.52;;;;;;;28.51;46.60;100043.31;1774760;79;21216;-81
2021/08/25 08:12:17;;;;;;;6.42;3.15;;;;;;;28.65;46.07;100043.38;1767950;79;21340;-77
2021/08/25 08:15:26;;;;;;;6.17;3.33;;;;;;;28.78;45.34;100044.03;1779602;79;21902;-77
2021/08/25 08:21:47;;;;;;;6.45;3.12;;;;;;;28.94;44.42;100056.49;1788992;78;22209;-76
2021/08/25 08:25:08;;;;;;;8.20;3.30;;;;;;;28.92;43.51;100053.13;1784105;78;21283;-78
2021/08/25 08:28:13;;;;;;;7.22;3.30;;;;;;;28.84;43.27;100049.58;1782139;78;21311;-76
2021/08/25 08:31:18;;;;;;;10.88;3.40;;;;;;;28.84;43.27;100049.58;1755488;79;21304;-77
2021/08/25 08:34:24;;;;;;;10.58;3.20;;;;;;;28.91;43.57;100050.05;1774358;78;21189;-77
2021/08/25 08:37:31;;;;;;;9.38;3.58;;;;;;;29.00;42.58;100047.69;1778599;79;21312;-77
2021/08/25 08:40:36;;;;;;;19.87;3.77;;;;;;;29.12;43.18;100047.78;1784771;79;21386;-77
2021/08/25 08:43:41;;;;;;;7.85;3.65;;;;;;;29.23;42.95;100045.08;1779944;79;21322;-77
2021/08/25 08:46:47;;;;;;;8.63;3.27;;;;;;;29.37;42.43;100038.92;1788069;79;21240;-78
2021/08/25 08:49:53;;;;;;;8.25;3.33;;;;;;;29.37;42.43;100038.92;1778812;79;21327;-78
2021/08/25 08:52:58;;;;;;;8.18;3.92;;;;;;;29.30;41.32;100039.88;1778677;79;21232;-78
2021/08/25 08:56:03;;;;;;;10.60;3.50;;;;;;;29.17;42.38;100028.84;1786216;79;21181;-78
2021/08/25 08:59:09;;;;;;;16.27;4.22;;;;;;;29.17;42.38;100028.84;1779116;79;22382;-77
2021/08/25 09:02:15;;;;;;;13.83;3.58;;;;;;;29.27;42.17;100032.06;1780533;79;21367;-77
2021/08/25 09:05:34;;;;;;;9.33;3.75;;;;;;;29.34;41.26;100030.24;1782404;79;21908;-78
2021/08/25 09:08:45;;;;;;;7.28;3.25;;;;;;;29.25;40.94;100025.30;1787124;79;21292;-79
2021/08/25 09:15:28;;;;;;;8.90;3.27;;;;;;;29.27;42.09;100024.44;1778447;79;21284;-77
2021/08/25 09:18:35;;;;;;;10.13;3.52;;;;;;;29.24;40.30;100016.59;1787217;79;21845;-76
2021/08/25 09:22:00;;;;;;;6.15;3.40;;;;;;;29.24;40.27;100016.59;1781130;79;21336;-78
2021/08/25 09:25:06;;;;;;;10.38;3.22;;;;;;;29.29;39.77;100023.55;1785460;79;21285;-78
2021/08/25 09:28:13;;;;;;;7.67;3.42;;;;;;;29.23;39.81;100019.16;1786288;79;21137;-78
2021/08/25 09:31:18;;;;;;;7.75;3.20;;;;;;;29.18;38.92;100011.38;1784191;79;21350;-78
2021/08/25 09:34:38;;;;;;;5.83;3.42;;;;;;;29.21;38.62;100012.98;1789695;79;21320;-77
2021/08/25 09:37:48;;;;;;;4.03;3.00;;;;;;;29.25;39.15;100004.19;1743168;79;21322;-77
2021/08/25 09:41:04;;;;;;;6.35;2.70;;;;;;;29.35;38.10;100003.17;1727447;79;21236;-77
2021/08/25 09:44:21;;;;;;;5.67;3.02;;;;;;;29.41;38.27;100003.94;1780098;79;21814;-78
2021/08/25 09:47:53;;;;;;;6.58;3.00;;;;;;;29.39;38.27;100001.41;1782052;79;21303;-78
2021/08/25 09:51:04;;;;;;;7.90;3.42;;;;;;;29.35;38.85;99993.88;1761440;79;21303;-78
2021/08/25 09:54:19;;;;;;;8.95;3.83;;;;;;;29.31;38.59;99992.83;1785482;79;21256;-78
2021/08/25 09:57:25;;;;;;;4.62;2.90;;;;;;;29.29;37.70;99995.96;1781505;79;21327;-77
2021/08/25 10:00:31;;;;;;;12.13;3.00;;;;;;;29.29;38.80;99991.16;1777822;79;21711;-78
2021/08/25 10:03:36;;;;;;;4.78;2.90;;;;;;;29.27;38.27;99994.04;1764863;79;21764;-78
2021/08/25 10:06:45;;;;;;;6.33;3.15;;;;;;;29.23;37.29;99983.13;1755722;79;21304;-78
2021/08/25 10:09:51;;;;;;;8.63;3.07;;;;;;;29.28;35.99;99988.66;1782850;79;21835;-76
2021/08/25 10:12:58;;;;;;;4.22;2.62;;;;;;;29.39;36.76;99985.92;1805883;79;21771;-76
2021/08/25 10:16:06;;;;;;;4.87;2.87;;;;;;;29.53;36.96;99990.17;1797508;79;21251;-76
2021/08/25 10:19:42;;;;;;;4.60;2.80;;;;;;;29.54;35.47;99991.84;1773107;79;21327;-77
2021/08/25 10:22:54;;;;;;;8.65;3.20;;;;;;;29.48;35.38;99987.45;1766959;79;21357;-77
2021/08/25 10:26:14;;;;;;;9.65;3.12;;;;;;;29.42;35.45;99985.31;1742287;81;21536;-77
2021/08/25 10:29:19;;;;;;;4.25;2.40;;;;;;;29.42;36.61;99977.44;1754617;81;21308;-77
2021/08/25 10:32:25;;;;;;;6.72;2.98;;;;;;;29.48;34.67;99975.61;1725012;81;21733;-77
2021/08/25 10:35:43;;;;;;;5.45;2.98;;;;;;;29.43;34.96;99978.52;1720364;81;21959;-77
2021/08/25 10:38:49;;;;;;;7.15;2.80;;;;;;;29.36;34.74;99984.28;1783591;79;21264;-77
2021/08/25 10:41:56;;;;;;;3.75;2.72;;;;;;;29.32;35.19;99971.41;1770975;80;22505;-77
2021/08/25 10:45:01;;;;;;;6.58;3.50;;;;;;;29.32;34.45;99981.84;1795271;79;21298;-77
2021/08/25 10:48:09;;;;;;;9.20;2.70;;;;;;;29.30;35.03;99972.28;1782094;79;21303;-77
2021/08/25 10:51:40;;;;;;;7.45;3.20;;;;;;;29.34;33.98;99964.05;1778668;79;21736;-76
2021/08/25 10:54:51;;;;;;;8.15;2.85;;;;;;;29.38;35.24;99966.52;1773425;79;21314;-77
2021/08/25 10:57:56;;;;;;;5.33;3.33;;;;;;;29.45;33.78;99966.39;1766871;80;21787;-77
2021/08/25 11:01:02;;;;;;;8.20;3.00;;;;;;;29.43;34.24;99969.23;1760712;80;21291;-79
2021/08/25 11:04:24;;;;;;;5.20;3.40;;;;;;;29.37;33.80;99956.41;1791413;80;21142;-77
2021/08/25 11:07:29;;;;;;;8.25;3.30;;;;;;;29.29;33.71;99957.94;1779380;80;22038;-77
2021/08/25 11:10:35;;;;;;;6.15;3.33;;;;;;;29.29;33.93;99958.77;1767333;80;21267;-77
2021/08/25 11:13:47;;;;;;;6.55;3.37;;;;;;;29.26;33.69;99950.93;1770117;80;21165;-77
2021/08/25 11:16:52;;;;;;;4.20;2.80;;;;;;;29.26;34.84;99943.06;1763454;80;21283;-77
2021/08/25 11:20:06;;;;;;;5.12;2.90;;;;;;;29.29;34.79;99933.42;1767846;80;21898;-77
2021/08/25 11:23:12;;;;;;;5.58;3.05;;;;;;;29.27;33.90;99937.14;1781763;80;21887;-77
2021/08/25 11:26:19;;;;;;;8.20;3.30;;;;;;;29.28;34.32;99935.98;1778740;80;21169;-78
2021/08/25 11:29:27;;;;;;;4.20;3.02;;;;;;;29.31;34.46;99922.41;1761952;80;21318;-78
2021/08/25 11:32:34;;;;;;;8.65;3.17;;;;;;;29.32;35.00;99931.98;1750202;80;21466;-78
2021/08/25 11:35:47;;;;;;;4.60;2.70;;;;;;;29.29;34.96;99930.61;1764645;80;21280;-81
2021/08/25 11:38:51;;;;;;;4.67;3.15;;;;;;;29.36;35.09;99920.91;1767306;80;21184;-79
2021/08/25 11:41:57;;;;;;;8.63;3.05;;;;;;;29.39;35.38;99929.58;1767889;80;21852;-79
2021/08/25 11:45:02;;;;;;;5.25;3.22;;;;;;;29.36;35.02;99918.09;1772048;80;21292;-79
2021/08/25 11:48:07;;;;;;;6.58;3.20;;;;;;;29.36;35.03;99936.40;1765521;80;21184;-79
2021/08/25 11:51:13;;;;;;;6.17;3.42;;;;;;;29.36;34.96;99926.54;1779392;80;21883;-80
2021/08/25 11:54:19;;;;;;;6.33;3.20;;;;;;;29.33;35.03;99925.77;1777696;79;22322;-79
2021/08/25 11:57:26;;;;;;;8.78;2.83;;;;;;;29.29;34.65;99917.09;1774175;79;21185;-79
2021/08/25 12:00:46;;;;;;;3.55;2.80;;;;;;;29.24;35.01;99906.77;1763114;79;21232;-78
2021/08/25 12:03:54;;;;;;;8.43;2.98;;;;;;;29.24;35.35;99905.36;1788847;79;21308;-78
2021/08/25 12:07:00;;;;;;;5.55;3.05;;;;;;;29.24;35.35;99905.36;1771430;79;21185;-78
2021/08/25 12:10:07;;;;;;;6.22;2.85;;;;;;;29.28;34.80;99901.36;1787431;79;21144;-78
2021/08/25 12:13:05;;;;;;;8.15;2.90;;;;;;;29.24;34.50;99903.12;1742244;81;21847;-78
2021/08/25 12:16:00;;;;;;;5.35;2.92;;;;;;;29.20;34.25;99890.22;1774137;79;21299;-77
2021/08/25 12:18:49;;;;;;;4.05;2.55;;;;;;;29.18;34.72;99887.47;1769554;79;21450;-78
2021/08/25 12:21:44;;;;;;;5.95;2.70;;;;;;;29.14;34.25;99883.02;1778525;79;21283;-78
2021/08/25 12:24:43;;;;;;;6.78;2.95;;;;;;;29.14;34.45;99883.60;1767435;80;21682;-78
2021/08/25 12:27:52;;;;;;;7.35;2.85;;;;;;;29.14;34.29;99881.62;1765899;79;21225;-78
2021/08/25 12:30:58;;;;;;;8.38;3.17;;;;;;;29.14;34.57;99880.21;1794978;79;21149;-78
2021/08/25 12:34:18;;;;;;;5.33;2.47;;;;;;;29.09;34.66;99876.66;1776908;79;21283;-78
2021/08/25 12:37:24;;;;;;;12.07;3.40;;;;;;;29.06;35.39;99875.28;1771523;79;21284;-78
2021/08/25 12:40:31;;;;;;;8.98;2.92;;;;;;;29.06;35.14;99869.66;1767797;79;21855;-78
2021/08/25 12:43:36;;;;;;;8.18;3.00;;;;;;;29.06;35.14;99869.66;1772339;79;21205;-78
2021/08/25 12:47:06;;;;;;;4.50;2.75;;;;;;;29.11;35.05;99864.50;1766794;79;21754;-78
2021/08/25 12:50:12;;;;;;;6.67;3.33;;;;;;;29.11;34.33;99865.33;1774762;79;21573;-78
2021/08/25 12:53:18;;;;;;;8.65;3.35;;;;;;;29.12;34.60;99861.36;1770650;79;21827;-78
2021/08/25 12:56:23;;;;;;;6.25;2.70;;;;;;;29.09;34.46;99862.58;1779003;79;21381;-79
2021/08/25 12:59:29;;;;;;;8.90;3.70;;;;;;;29.00;34.65;99856.25;1775161;79;21840;-78
2021/08/25 13:02:35;;;;;;;8.38;2.92;;;;;;;29.00;34.64;99863.86;1786020;79;21263;-79
2021/08/25 13:05:40;;;;;;;13.70;3.17;;;;;;;28.98;34.91;99856.28;1791251;79;21264;-78
2021/08/25 13:08:47;;;;;;;8.78;3.10;;;;;;;28.97;34.88;99854.62;1786216;79;21267;-78
2021/08/25 13:11:53;;;;;;;7.58;3.25;;;;;;;28.97;34.88;99854.62;1783198;79;21338;-78
2021/08/25 13:14:59;;;;;;;5.85;2.72;;;;;;;28.90;34.76;99854.17;1774114;80;21239;-78
2021/08/25 13:18:05;;;;;;;7.08;3.50;;;;;;;28.85;34.72;99854.27;1776160;79;21192;-78
2021/08/25 13:21:11;;;;;;;6.30;3.50;;;;;;;28.85;34.72;99854.27;1780392;79;21729;-78
2021/08/25 13:24:16;;;;;;;6.85;3.12;;;;;;;28.83;34.83;99843.87;1790515;79;22494;-78
2021/08/25 13:27:22;;;;;;;4.90;2.85;;;;;;;28.80;34.80;99831.84;1792937;79;21299;-78
2021/08/25 13:30:27;;;;;;;6.53;2.85;;;;;;;28.77;34.97;99838.33;1793996;79;21326;-78
2021/08/25 13:33:34;;;;;;;4.80;2.62;;;;;;;28.67;34.61;99837.69;1804009;79;21232;-78
2021/08/25 13:36:42;;;;;;;5.15;2.87;;;;;;;28.58;33.34;99835.31;1800400;79;21188;-78
2021/08/25 13:39:47;;;;;;;6.28;3.60;;;;;;;28.58;33.34;99835.31;1788480;79;21173;-78
2021/08/25 13:42:53;;;;;;;6.08;3.20;;;;;;;28.51;33.94;99831.47;1777980;79;21169;-78
2021/08/25 13:45:59;;;;;;;10.63;3.52;;;;;;;28.46;33.94;99825.35;1774562;80;21283;-78
2021/08/25 13:49:05;;;;;;;7.90;3.20;;;;;;;28.42;34.19;99823.46;1780991;79;21326;-78
2021/08/25 13:52:11;;;;;;;11.25;3.22;;;;;;;28.39;35.03;99822.11;1743843;81;21311;-78
2021/08/25 13:55:16;;;;;;;5.85;2.92;;;;;;;28.39;34.18;99822.69;1759970;81;22276;-78
2021/08/25 13:58:22;;;;;;;4.33;2.87;;;;;;;28.39;34.18;99822.69;1726469;82;21212;-78
2021/08/25 14:01:28;;;;;;;9.20;3.08;;;;;;;28.35;34.11;99816.83;1704528;83;21284;-78
2021/08/25 14:04:35;;;;;;;14.30;3.62;;;;;;;28.26;34.05;99813.84;1707441;82;21811;-77
2021/08/25 14:07:40;;;;;;;8.55;3.87;;;;;;;28.26;34.05;99813.84;1709721;82;21153;-77
2021/08/25 14:10:45;;;;;;;9.38;4.95;;;;;;;28.23;33.79;99813.61;1704702;82;22019;-77
2021/08/25 14:13:53;;;;;;;10.38;4.60;;;;;;;28.13;34.16;99817.42;1726656;81;21169;-77
2021/08/25 14:16:58;;;;;;;7.75;4.62;;;;;;;28.13;34.16;99817.42;1718637;82;21659;-77
2021/08/25 14:20:04;;;;;;;12.78;4.83;;;;;;;28.09;34.13;99822.01;1703988;84;21375;-77
2021/08/25 14:23:09;;;;;;;7.62;4.60;;;;;;;28.05;34.08;99818.13;1703405;84;21277;-77
2021/08/25 14:26:13;;;;;;;10.40;5.12;;;;;;;27.96;34.37;99817.14;1704227;84;21304;-77
2021/08/25 14:29:19;;;;;;;9.63;6.33;;;;;;;27.96;34.37;99817.14;1704148;84;21280;-77